Time;durP1;ratioP1;P1;durP2;ratioP2;P2;SDS_P1;SDS_P2;PMS_P1;PMS_P2;Temp;Humidity;BMP_temperature;BMP_pressure;BME280_temperature;BME280_humidity;BME280_pressure;Samples;Min_cycle;Max_cycle;Signal;HPM_P1;HPM_P2
2023/12/27 00:02:33;;;;;;;5.13;1.97;;;;;;;6.87;100.00;96430.50;7402482;19;20399;-89
2023/12/27 00:05:19;;;;;;;4.97;2.13;;;;;;;6.07;100.00;96315.19;7401921;19;20393;-90
2023/12/27 00:08:09;;;;;;;3.73;2.20;;;;;;;6.22;100.00;96350.81;7403462;19;20392;-90
2023/12/27 00:10:53;;;;;;;2.77;1.90;;;;;;;6.26;100.00;96381.31;7403705;19;20383;-90
2023/12/27 00:13:48;;;;;;;5.90;3.60;;;;;;;5.86;100.00;96324.19;7403337;19;20372;-89
2023/12/27 00:16:32;;;;;;;4.00;2.80;;;;;;;6.25;100.00;96384.97;7403433;19;20369;-90
2023/12/27 00:19:13;;;;;;;2.17;2.07;;;;;;;5.92;100.00;96338.72;7402325;19;20700;-90
2023/12/27 00:21:54;;;;;;;6.20;3.03;;;;;;;5.94;100.00;96340.00;7401008;19;20397;-89
2023/12/27 00:24:35;;;;;;;5.47;4.83;;;;;;;6.21;100.00;96411.81;7400384;19;20385;-89
2023/12/27 00:27:16;;;;;;;21.87;14.83;;;;;;;5.44;100.00;96345.41;7401769;19;20391;-90
2023/12/27 00:29:57;;;;;;;7.17;5.30;;;;;;;5.53;100.00;96341.19;7402210;19;20381;-90
2023/12/27 00:32:39;;;;;;;4.07;3.37;;;;;;;5.47;100.00;96326.66;7400438;19;20474;-90
2023/12/27 00:35:20;;;;;;;5.77;2.83;;;;;;;5.21;100.00;96292.09;7402189;19;20408;-90
2023/12/27 00:38:01;;;;;;;2.90;1.90;;;;;;;5.23;100.00;96292.59;7402413;19;20381;-89
2023/12/27 00:40:43;;;;;;;6.00;1.90;;;;;;;5.72;100.00;96383.84;7402310;19;20393;-90
2023/12/27 00:43:24;;;;;;;7.13;2.30;;;;;;;5.15;100.00;96316.53;7399338;19;20426;-90
2023/12/27 00:46:06;;;;;;;1.73;1.63;;;;;;;5.83;100.00;96428.84;7401473;19;20410;-89
2023/12/27 00:48:47;;;;;;;2.00;1.53;;;;;;;5.49;100.00;96377.38;7401585;19;20463;-89
2023/12/27 00:51:28;;;;;;;7.43;2.43;;;;;;;5.01;100.00;96324.09;7403138;19;20475;-89
2023/12/27 00:54:09;;;;;;;5.03;2.50;;;;;;;5.73;100.00;96439.31;7401309;19;20395;-89
2023/12/27 00:56:50;;;;;;;1.83;1.73;;;;;;;5.33;100.00;96396.69;7401461;19;20484;-89
2023/12/27 00:59:32;;;;;;;2.63;1.90;;;;;;;5.00;100.00;96346.72;7401841;19;20404;-89
2023/12/27 01:02:14;;;;;;;2.10;1.90;;;;;;;5.64;100.00;96452.84;7400118;19;20420;-89
2023/12/27 01:04:58;;;;;;;10.80;3.23;;;;;;;5.19;100.00;96393.03;7402345;19;20356;-89
2023/12/27 01:07:39;;;;;;;19.43;10.60;;;;;;;4.83;100.00;96346.22;7400594;19;20709;-89
2023/12/27 01:10:20;;;;;;;4.93;3.10;;;;;;;4.61;100.00;96328.28;7400112;19;20399;-88
2023/12/27 01:13:01;;;;;;;3.10;2.90;;;;;;;5.20;100.00;96436.22;7398193;19;20416;-90
2023/12/27 01:15:42;;;;;;;3.27;2.10;;;;;;;4.76;100.00;96387.28;7400294;19;20372;-90
2023/12/27 01:18:24;;;;;;;2.33;2.13;;;;;;;4.55;100.00;96359.72;7400949;19;20384;-89
2023/12/27 01:21:05;;;;;;;4.63;1.93;;;;;;;4.53;100.00;96374.81;7400603;19;20396;-90
2023/12/27 01:23:46;;;;;;;4.90;2.57;;;;;;;4.25;100.00;96324.88;7398352;19;20571;-90
2023/12/27 01:26:27;;;;;;;4.27;3.03;;;;;;;4.54;100.00;96368.56;7399717;19;20846;-89
2023/12/27 01:29:08;;;;;;;9.57;2.87;;;;;;;4.55;100.00;96383.13;7401264;19;20369;-89
2023/12/27 01:31:51;;;;;;;11.67;3.40;;;;;;;4.38;100.00;96368.53;7399016;19;20727;-89
2023/12/27 01:34:32;;;;;;;3.10;2.70;;;;;;;4.52;100.00;96389.63;7400054;19;20800;-89
2023/12/27 01:37:13;;;;;;;3.00;2.57;;;;;;;4.30;100.00;96373.44;7400683;19;20388;-89
2023/12/27 01:39:54;;;;;;;2.70;2.30;;;;;;;4.35;100.00;96384.63;7399765;19;20413;-90
2023/12/27 01:42:37;;;;;;;4.70;2.67;;;;;;;4.42;100.00;96392.19;7398816;19;20476;-89
2023/12/27 01:45:18;;;;;;;1.87;1.77;;;;;;;4.38;100.00;96372.97;7398147;19;20399;-89
2023/12/27 01:47:59;;;;;;;2.33;2.13;;;;;;;4.80;100.00;96450.75;7399169;19;20389;-89
2023/12/27 01:50:40;;;;;;;3.27;2.50;;;;;;;4.07;100.00;96351.28;7399598;19;20369;-89
2023/12/27 01:53:23;;;;;;;4.83;2.97;;;;;;;4.68;100.00;96445.78;7396967;19;20412;-89
2023/12/27 01:56:04;;;;;;;3.00;2.73;;;;;;;4.63;100.00;96424.19;7398806;19;20454;-89
2023/12/27 01:58:45;;;;;;;9.67;2.90;;;;;;;4.49;100.00;96413.50;7398718;19;20393;-88
2023/12/27 02:01:27;;;;;;;6.10;3.33;;;;;;;4.22;100.00;96369.50;7398499;19;20881;-89
2023/12/27 02:04:08;;;;;;;3.40;3.10;;;;;;;4.45;100.00;96423.63;7398498;19;20388;-89
2023/12/27 02:06:51;;;;;;;9.23;2.80;;;;;;;4.48;100.00;96438.69;7396484;19;20392;-91
2023/12/27 02:09:32;;;;;;;3.10;2.23;;;;;;;4.49;100.00;96432.47;7398380;19;20421;-89
2023/12/27 02:12:26;;;;;;;3.20;2.90;;;;;;;4.13;100.00;96363.28;7398055;19;20420;-89
2023/12/27 02:15:07;;;;;;;2.80;2.60;;;;;;;4.65;100.00;96438.50;7398643;19;20933;-89
2023/12/27 02:17:49;;;;;;;5.10;2.63;;;;;;;4.21;100.00;96393.94;7398403;19;20388;-89
2023/12/27 02:20:31;;;;;;;2.50;2.30;;;;;;;4.59;100.00;96494.09;7398682;19;20874;-89
2023/12/27 02:23:17;;;;;;;2.27;2.17;;;;;;;3.36;100.00;96388.06;7397195;19;20412;-89
2023/12/27 02:25:59;;;;;;;2.17;2.07;;;;;;;3.39;100.00;96391.97;7396403;19;20377;-89
2023/12/27 02:28:44;;;;;;;3.80;2.30;;;;;;;3.56;100.00;96402.97;7396281;19;20368;-89
2023/12/27 02:31:25;;;;;;;4.10;2.23;;;;;;;3.51;100.00;96389.97;7397633;19;20519;-89
2023/12/27 02:34:06;;;;;;;2.93;2.30;;;;;;;3.94;100.00;96440.81;7398323;19;20873;-89
2023/12/27 02:36:47;;;;;;;2.30;2.10;;;;;;;4.06;100.00;96501.13;7398826;19;20418;-89
2023/12/27 02:39:28;;;;;;;5.40;2.40;;;;;;;3.41;100.00;96382.13;7398323;19;20387;-91
2023/12/27 02:42:09;;;;;;;2.37;2.17;;;;;;;3.69;100.00;96399.16;7396639;19;20399;-91
2023/12/27 02:44:51;;;;;;;7.97;3.10;;;;;;;3.44;100.00;96356.50;7396541;19;20380;-90
2023/12/27 02:47:33;;;;;;;5.53;2.33;;;;;;;4.05;100.00;96436.47;7397104;19;20448;-91
2023/12/27 02:50:14;;;;;;;2.17;1.97;;;;;;;3.81;100.00;96395.31;7397070;19;20702;-91
2023/12/27 02:52:55;;;;;;;4.17;2.40;;;;;;;4.17;100.00;96432.63;7397477;19;20388;-91
2023/12/27 02:55:36;;;;;;;6.60;2.80;;;;;;;4.47;100.00;96486.50;7397316;19;20614;-91
2023/12/27 02:58:17;;;;;;;2.23;2.13;;;;;;;3.91;100.00;96420.56;7396962;19;20413;-91
2023/12/27 03:00:59;;;;;;;2.33;2.10;;;;;;;3.59;100.00;96376.53;7396845;19;20397;-89
2023/12/27 03:03:40;;;;;;;3.80;2.30;;;;;;;3.52;100.00;96363.00;7396856;19;20372;-88
2023/12/27 03:06:21;;;;;;;2.97;2.33;;;;;;;3.74;100.00;96373.25;7397697;19;20420;-89
2023/12/27 03:09:02;;;;;;;2.47;2.27;;;;;;;3.61;100.00;96416.00;7396979;19;20399;-89
2023/12/27 03:11:43;;;;;;;2.80;2.10;;;;;;;3.67;100.00;96393.44;7396853;19;20412;-92
2023/12/27 03:14:26;;;;;;;2.90;1.80;;;;;;;3.75;100.00;96411.13;7396899;19;20384;-89
2023/12/27 03:17:07;;;;;;;3.53;1.70;;;;;;;3.72;100.00;96396.84;7397800;19;20376;-89
2023/12/27 03:19:49;;;;;;;3.70;2.13;;;;;;;3.71;100.00;96378.94;7403773;19;20385;-89
2023/12/27 03:22:30;;;;;;;4.73;3.57;;;;;;;3.57;100.00;96344.88;7401527;19;20428;-89
2023/12/27 03:25:11;;;;;;;4.73;2.70;;;;;;;3.99;100.00;96403.72;7401648;19;20685;-89
2023/12/27 03:27:52;;;;;;;2.83;2.63;;;;;;;4.42;100.00;96462.34;7403419;19;20878;-89
2023/12/27 03:30:33;;;;;;;3.00;2.80;;;;;;;3.68;100.00;96364.63;7403731;19;20356;-89
2023/12/27 03:33:14;;;;;;;4.47;2.30;;;;;;;3.44;100.00;96327.97;7400706;19;20551;-89
2023/12/27 03:35:55;;;;;;;3.33;2.80;;;;;;;3.50;100.00;96339.91;7404072;19;20361;-90
2023/12/27 03:38:36;;;;;;;3.80;2.80;;;;;;;3.79;100.00;96397.41;7404443;19;20389;-89
2023/12/27 03:41:17;;;;;;;3.77;2.60;;;;;;;3.41;100.00;96319.88;7403679;19;20396;-89
2023/12/27 03:43:59;;;;;;;4.17;3.10;;;;;;;3.71;100.00;96382.31;7402314;19;20377;-90
2023/12/27 03:46:40;;;;;;;3.67;3.30;;;;;;;3.84;100.00;96387.06;7402925;19;20396;-89
2023/12/27 03:49:21;;;;;;;4.27;3.87;;;;;;;3.87;100.00;96406.53;7402600;19;20380;-89
2023/12/27 03:52:02;;;;;;;10.43;4.80;;;;;;;3.68;100.00;96364.63;7401428;19;20396;-90
2023/12/27 03:54:43;;;;;;;7.17;4.30;;;;;;;3.81;100.00;96374.56;7403362;19;20368;-89
2023/12/27 03:57:25;;;;;;;9.27;5.10;;;;;;;3.70;100.00;96359.19;7402285;19;20391;-90
2023/12/27 04:00:06;;;;;;;5.80;3.70;;;;;;;3.89;100.00;96396.66;7402342;19;20873;-89
2023/12/27 04:02:47;;;;;;;6.00;3.40;;;;;;;3.94;100.00;96414.06;7400160;19;20507;-90
2023/12/27 04:05:28;;;;;;;5.00;3.80;;;;;;;3.91;100.00;96430.94;7400972;19;20700;-89
2023/12/27 04:08:10;;;;;;;4.90;2.87;;;;;;;3.97;100.00;96444.75;7403030;19;20377;-89
2023/12/27 04:10:56;;;;;;;3.87;2.40;;;;;;;3.87;100.00;96422.09;7403109;19;20380;-90
2023/12/27 04:13:40;;;;;;;6.03;3.13;;;;;;;3.99;100.00;96438.28;7402985;19;20448;-90
2023/12/27 04:16:24;;;;;;;6.00;4.20;;;;;;;3.58;100.00;96369.78;7402520;19;20380;-89
2023/12/27 04:19:07;;;;;;;3.63;3.10;;;;;;;3.92;100.00;96432.50;7402713;19;20388;-89
2023/12/27 04:21:51;;;;;;;4.13;3.50;;;;;;;3.10;100.00;96313.75;7402208;19;20421;-89
2023/12/27 04:24:35;;;;;;;4.63;4.23;;;;;;;3.33;100.00;96382.63;7402516;19;20436;-89
2023/12/27 04:27:16;;;;;;;4.40;3.60;;;;;;;3.19;100.00;96379.66;7402891;19;20348;-90
2023/12/27 04:30:10;;;;;;;5.00;4.50;;;;;;;2.85;100.00;96325.50;7401353;19;20410;-89
2023/12/27 04:32:53;;;;;;;4.80;4.00;;;;;;;3.73;100.00;96432.16;7400864;19;20466;-89
2023/12/27 04:35:37;;;;;;;5.23;3.90;;;;;;;3.38;100.00;96382.63;7402226;19;20369;-90
2023/12/27 04:38:18;;;;;;;3.73;3.43;;;;;;;3.96;100.00;96423.16;7402225;19;20390;-90
2023/12/27 04:41:05;;;;;;;6.37;4.30;;;;;;;4.19;100.00;96406.41;7402247;19;20372;-91
2023/12/27 04:43:48;;;;;;;6.33;4.63;;;;;;;4.46;100.00;96451.16;7401762;19;20400;-91
2023/12/27 04:46:35;;;;;;;5.00;3.50;;;;;;;4.16;100.00;96419.91;7402038;19;20361;-95
2023/12/27 04:49:21;;;;;;;6.77;4.90;;;;;;;4.55;100.00;96415.09;7401496;19;20391;-90
2023/12/27 04:52:12;;;;;;;8.73;5.43;;;;;;;3.86;100.00;96333.06;7399491;19;20510;-90
2023/12/27 04:54:53;;;;;;;11.87;7.57;;;;;;;4.39;100.00;96423.88;7401115;19;20373;-90
2023/12/27 04:57:34;;;;;;;14.60;9.70;;;;;;;4.37;100.00;96431.94;7401188;19;20381;-89
2023/12/27 05:00:15;;;;;;;12.00;7.33;;;;;;;3.93;100.00;96389.94;7401017;19;20388;-91
2023/12/27 05:02:57;;;;;;;6.80;6.20;;;;;;;4.00;100.00;96410.47;7399414;19;20405;-90
2023/12/27 05:05:39;;;;;;;13.27;7.97;;;;;;;3.56;100.00;96325.91;7398844;19;20372;-90
2023/12/27 05:08:21;;;;;;;13.40;8.60;;;;;;;3.81;100.00;96376.38;7400289;19;20936;-90
2023/12/27 05:11:02;;;;;;;12.83;6.17;;;;;;;3.90;100.00;96382.66;7399847;19;20389;-90
2023/12/27 05:13:44;;;;;;;10.23;5.20;;;;;;;3.71;100.00;96369.34;7399922;19;20389;-90
2023/12/27 05:16:25;;;;;;;7.47;4.80;;;;;;;3.59;100.00;96360.97;7400459;19;20424;-90
2023/12/27 05:19:07;;;;;;;7.83;4.70;;;;;;;4.03;100.00;96441.91;7399466;19;20404;-90
2023/12/27 05:21:48;;;;;;;5.50;3.83;;;;;;;3.12;100.00;96340.19;7399757;19;20408;-90
2023/12/27 05:24:29;;;;;;;8.07;5.70;;;;;;;3.27;100.00;96382.56;7397699;19;20479;-90
2023/12/27 05:27:10;;;;;;;6.80;3.70;;;;;;;3.15;100.00;96345.66;7400091;19;20373;-91
2023/12/27 05:29:52;;;;;;;7.07;4.70;;;;;;;3.26;100.00;96362.84;7399901;19;20364;-90
2023/12/27 05:32:33;;;;;;;5.23;4.30;;;;;;;3.19;100.00;96372.66;7398083;19;20933;-91
2023/12/27 05:35:14;;;;;;;4.70;3.40;;;;;;;3.15;100.00;96356.03;7399596;19;20679;-90
2023/12/27 05:37:55;;;;;;;4.43;4.03;;;;;;;3.60;100.00;96422.22;7399358;19;20392;-90
2023/12/27 05:40:36;;;;;;;4.90;3.73;;;;;;;3.70;100.00;96430.06;7397256;19;20364;-90
2023/12/27 05:43:17;;;;;;;5.40;3.20;;;;;;;2.95;100.00;96332.56;7397109;19;20454;-90
2023/12/27 05:45:58;;;;;;;4.23;3.90;;;;;;;3.31;100.00;96372.50;7397151;19;20377;-90
2023/12/27 05:48:39;;;;;;;6.20;4.10;;;;;;;3.03;100.00;96332.09;7398834;19;20432;-91
2023/12/27 05:51:20;;;;;;;5.00;3.43;;;;;;;3.16;100.00;96360.19;7398640;19;20401;-90
2023/12/27 05:54:02;;;;;;;5.33;4.50;;;;;;;2.85;100.00;96311.75;7399180;19;20444;-90
2023/12/27 05:56:44;;;;;;;5.53;3.80;;;;;;;3.21;100.00;96375.78;7399025;19;20388;-90
2023/12/27 05:59:25;;;;;;;4.90;4.13;;;;;;;3.30;100.00;96386.50;7399647;19;20372;-90
2023/12/27 06:02:06;;;;;;;9.87;3.60;;;;;;;3.18;100.00;96384.06;7397799;19;20910;-91
2023/12/27 06:04:47;;;;;;;8.07;5.20;;;;;;;2.87;100.00;96362.31;7397695;19;20884;-90
2023/12/27 06:07:29;;;;;;;8.17;4.73;;;;;;;3.01;100.00;96391.19;7398929;19;20436;-90
2023/12/27 06:10:10;;;;;;;7.83;5.20;;;;;;;2.80;100.00;96348.78;7398116;19;20929;-91
2023/12/27 06:12:51;;;;;;;7.70;6.90;;;;;;;2.98;100.00;96399.47;7397072;19;20479;-90
2023/12/27 06:15:33;;;;;;;8.87;6.47;;;;;;;2.98;100.00;96396.88;7397830;19;20443;-91
2023/12/27 06:18:14;;;;;;;7.27;6.57;;;;;;;3.47;100.00;96492.69;7397778;19;20387;-91
2023/12/27 06:20:55;;;;;;;11.43;7.37;;;;;;;2.99;100.00;96429.53;7398548;19;20360;-90
2023/12/27 06:23:36;;;;;;;9.10;7.47;;;;;;;3.43;100.00;96500.19;7396936;19;20392;-90
2023/12/27 06:26:17;;;;;;;7.07;6.37;;;;;;;3.10;100.00;96440.78;7399286;19;20371;-91
2023/12/27 06:28:59;;;;;;;8.90;6.67;;;;;;;3.32;100.00;96479.63;7397654;19;20885;-90
2023/12/27 06:31:40;;;;;;;11.00;7.10;;;;;;;2.82;100.00;96405.56;7397604;19;20416;-91
2023/12/27 06:34:21;;;;;;;7.30;5.63;;;;;;;2.67;100.00;96403.59;7397351;19;20398;-90
2023/12/27 06:37:03;;;;;;;10.67;6.53;;;;;;;3.07;100.00;96449.84;7397160;19;20412;-90
2023/12/27 06:39:44;;;;;;;9.67;6.97;;;;;;;3.08;100.00;96459.19;7397200;19;20403;-90
2023/12/27 06:42:25;;;;;;;8.73;7.87;;;;;;;2.79;100.00;96413.81;7396194;19;20412;-90
2023/12/27 06:45:07;;;;;;;9.90;9.00;;;;;;;2.77;100.00;96424.44;7396251;19;20388;-92
2023/12/27 06:47:49;;;;;;;9.23;7.47;;;;;;;2.31;100.00;96381.75;7398607;19;20830;-90
2023/12/27 06:50:30;;;;;;;8.03;6.33;;;;;;;2.75;100.00;96444.59;7397017;19;20381;-90
2023/12/27 06:53:11;;;;;;;5.87;5.40;;;;;;;2.70;100.00;96429.81;7399773;19;20384;-90
2023/12/27 06:55:52;;;;;;;9.53;5.73;;;;;;;2.54;100.00;96391.06;7418710;19;20372;-90
2023/12/27 06:58:33;;;;;;;8.53;4.80;;;;;;;2.54;100.00;96402.19;7423336;19;20369;-90
2023/12/27 07:01:15;;;;;;;7.60;4.33;;;;;;;3.15;100.00;96479.72;7427113;19;20361;-90
2023/12/27 07:03:56;;;;;;;5.63;5.23;;;;;;;2.59;100.00;96394.47;7435005;19;20376;-89
2023/12/27 07:06:40;;;;;;;5.80;4.87;;;;;;;2.40;100.00;96364.75;7434937;19;20380;-90
2023/12/27 07:09:21;;;;;;;6.57;4.50;;;;;;;2.85;100.00;96438.75;7434942;19;20393;-90
2023/12/27 07:12:03;;;;;;;5.80;4.90;;;;;;;3.02;100.00;96444.59;7409207;19;20439;-91
2023/12/27 07:14:44;;;;;;;8.47;6.00;;;;;;;2.92;100.00;96439.34;7406157;19;20903;-90
2023/12/27 07:17:25;;;;;;;17.33;10.47;;;;;;;2.57;100.00;96391.34;7405247;19;20376;-90
2023/12/27 07:20:08;;;;;;;19.93;13.27;;;;;;;2.70;100.00;96410.88;7405579;19;20429;-90
2023/12/27 07:22:50;;;;;;;17.97;10.90;;;;;;;3.09;100.00;96494.44;7403701;19;20420;-90
2023/12/27 07:25:31;;;;;;;14.77;8.60;;;;;;;2.25;100.00;96362.81;7401608;19;20376;-90
2023/12/27 07:28:12;;;;;;;16.73;10.70;;;;;;;2.72;100.00;96419.97;7404330;19;20416;-91
2023/12/27 07:30:53;;;;;;;13.13;8.50;;;;;;;2.80;100.00;96421.34;7404165;19;20381;-90
2023/12/27 07:33:38;;;;;;;10.60;9.33;;;;;;;2.60;100.00;96403.78;7404202;19;20397;-90
2023/12/27 07:36:19;;;;;;;14.43;9.73;;;;;;;2.49;100.00;96422.84;7403172;19;20402;-90
2023/12/27 07:39:00;;;;;;;11.40;9.40;;;;;;;2.52;100.00;96414.59;7403140;19;20379;-90
2023/12/27 07:41:42;;;;;;;15.87;9.23;;;;;;;2.57;100.00;96432.78;7402891;19;20491;-90
2023/12/27 07:44:23;;;;;;;8.70;7.60;;;;;;;2.59;100.00;96414.41;7402131;19;20681;-90
2023/12/27 07:47:06;;;;;;;11.07;7.80;;;;;;;2.34;100.00;96378.66;7403072;19;20842;-90
2023/12/27 07:49:47;;;;;;;7.70;6.03;;;;;;;2.53;100.00;96394.66;7403497;19;20377;-90
2023/12/27 07:52:29;;;;;;;7.67;4.93;;;;;;;3.02;100.00;96454.97;7401340;19;20715;-91
2023/12/27 07:55:10;;;;;;;8.00;4.70;;;;;;;2.87;100.00;96421.91;7403741;19;20383;-90
2023/12/27 07:57:51;;;;;;;6.07;4.43;;;;;;;3.02;100.00;96444.59;7403499;19;20389;-90
2023/12/27 08:00:32;;;;;;;8.00;5.40;;;;;;;3.21;100.00;96460.59;7402815;19;20388;-90
2023/12/27 08:03:14;;;;;;;8.43;5.90;;;;;;;2.74;100.00;96406.00;7399570;19;20408;-90
2023/12/27 08:05:55;;;;;;;6.73;4.83;;;;;;;3.18;100.00;96459.28;7400574;19;20370;-91
2023/12/27 08:08:36;;;;;;;9.50;7.63;;;;;;;2.86;100.00;96422.16;7403199;19;20385;-90
2023/12/27 08:11:17;;;;;;;9.23;6.30;;;;;;;3.53;100.00;96483.91;7402221;19;20389;-90
2023/12/27 08:13:58;;;;;;;9.23;5.60;;;;;;;2.75;100.00;96386.81;7402485;19;20408;-90
2023/12/27 08:16:39;;;;;;;6.50;4.40;;;;;;;3.37;100.00;96461.47;7401869;19;20410;-90
2023/12/27 08:19:20;;;;;;;5.03;4.50;;;;;;;3.00;100.00;96405.19;7401702;19;20885;-89
2023/12/27 08:22:03;;;;;;;5.27;4.17;;;;;;;3.19;100.00;96437.50;7401146;19;20409;-90
2023/12/27 08:24:44;;;;;;;5.60;3.57;;;;;;;3.50;100.00;96477.41;7400600;19;20392;-90
2023/12/27 08:27:25;;;;;;;6.83;4.17;;;;;;;3.25;100.00;96427.94;7401411;19;20845;-90
2023/12/27 08:30:06;;;;;;;4.63;4.23;;;;;;;3.17;100.00;96405.84;7401710;19;20854;-90
2023/12/27 08:32:51;;;;;;;6.87;4.70;;;;;;;3.41;100.00;96446.97;7400734;19;20405;-90
2023/12/27 08:35:33;;;;;;;4.23;3.93;;;;;;;3.27;100.00;96438.84;7401833;19;20380;-90
2023/12/27 08:38:15;;;;;;;7.00;4.37;;;;;;;3.57;100.00;96472.03;7402433;19;20377;-90
2023/12/27 08:40:56;;;;;;;4.60;4.13;;;;;;;3.37;100.00;96435.53;7403760;19;20436;-90
2023/12/27 08:43:37;;;;;;;4.50;3.80;;;;;;;3.39;100.00;96425.69;7403712;19;20377;-90
2023/12/27 08:46:22;;;;;;;4.37;3.97;;;;;;;3.40;100.00;96425.44;7404734;19;20925;-91
2023/12/27 08:49:04;;;;;;;6.80;4.43;;;;;;;4.26;100.00;96546.44;7404463;19;20377;-91
2023/12/27 08:51:45;;;;;;;7.50;6.60;;;;;;;3.48;100.00;96434.59;7400002;19;20412;-91
2023/12/27 08:54:26;;;;;;;7.00;6.30;;;;;;;3.74;100.00;96462.28;7400267;19;20408;-91
2023/12/27 08:57:07;;;;;;;8.80;7.90;;;;;;;3.47;100.00;96407.88;7400339;19;20381;-91
2023/12/27 08:59:48;;;;;;;59.63;42.23;;;;;;;3.86;100.00;96462.84;7404941;19;20377;-91
2023/12/27 09:02:29;;;;;;;45.00;32.27;;;;;;;4.04;100.00;96479.03;7400772;19;20419;-90
2023/12/27 09:05:10;;;;;;;26.03;20.70;;;;;;;3.86;100.00;96456.88;7402289;19;20388;-91
2023/12/27 09:07:51;;;;;;;12.10;8.13;;;;;;;4.09;100.00;96518.78;7403341;19;20881;-90
2023/12/27 09:10:34;;;;;;;9.67;8.60;;;;;;;4.52;100.00;96558.53;7403992;19;20417;-90
2023/12/27 09:13:16;;;;;;;9.47;6.57;;;;;;;3.88;100.00;96462.59;7403464;19;20377;-91
2023/12/27 09:15:57;;;;;;;11.83;7.23;;;;;;;3.93;100.00;96446.25;7404374;19;20412;-90
2023/12/27 09:18:38;;;;;;;12.93;7.73;;;;;;;4.09;100.00;96461.66;7405553;19;20464;-91
2023/12/27 09:21:19;;;;;;;11.43;9.20;;;;;;;3.78;100.00;96402.84;7403098;19;20420;-91
2023/12/27 09:24:00;;;;;;;17.83;9.00;;;;;;;4.04;100.00;96425.28;7400181;19;20420;-90
2023/12/27 09:26:43;;;;;;;15.90;9.73;;;;;;;3.93;100.00;96400.31;7401198;19;20377;-90
2023/12/27 09:29:24;;;;;;;22.43;11.20;;;;;;;4.77;100.00;96518.88;7399126;19;20440;-91
2023/12/27 09:32:05;;;;;;;11.20;10.10;;;;;;;4.60;100.00;96450.69;7398047;19;20444;-90
2023/12/27 09:34:46;;;;;;;11.63;9.77;;;;;;;3.93;100.00;96316.47;7401157;19;20373;-90
2023/12/27 09:37:27;;;;;;;10.40;7.77;;;;;;;4.53;100.00;96439.78;7401247;19;20388;-91
2023/12/27 09:40:09;;;;;;;10.83;5.07;;;;;;;4.64;100.00;96426.53;7402483;19;20364;-90
2023/12/27 09:42:52;;;;;;;9.20;4.70;;;;;;;4.60;100.00;96402.09;7399771;19;20400;-90
2023/12/27 09:45:37;;;;;;;5.43;4.90;;;;;;;5.22;100.00;96467.97;7400558;19;20858;-91
2023/12/27 09:48:19;;;;;;;8.50;4.73;;;;;;;5.08;100.00;96428.69;7400854;19;20400;-90
2023/12/27 09:51:00;;;;;;;5.60;4.83;;;;;;;5.21;100.00;96438.56;7399338;19;20389;-90
2023/12/27 09:53:42;;;;;;;5.80;3.67;;;;;;;5.47;100.00;96443.78;7400743;19;20866;-91
2023/12/27 09:56:25;;;;;;;6.37;5.63;;;;;;;5.17;100.00;96416.72;7403227;19;20363;-90
2023/12/27 09:59:10;;;;;;;7.80;5.27;;;;;;;5.97;100.00;96500.22;7401795;19;20376;-90
2023/12/27 10:01:59;;;;;;;8.80;5.50;;;;;;;5.72;100.00;96437.75;7401147;19;20700;-90
2023/12/27 10:05:17;;;;;;;4.97;4.43;;;;;;;6.38;100.00;96500.91;7401684;19;20384;-90
2023/12/27 10:07:58;;;;;;;7.40;5.80;;;;;;;5.56;100.00;96382.31;7399318;19;20389;-91
2023/12/27 10:10:40;;;;;;;8.17;4.90;;;;;;;5.52;100.00;96370.88;7400657;19;20377;-90
2023/12/27 10:13:21;;;;;;;9.70;5.73;;;;;;;5.55;100.00;96388.56;7396910;19;20417;-90
2023/12/27 10:16:04;;;;;;;11.17;4.53;;;;;;;5.71;100.00;96408.34;7399535;19;20372;-90
2023/12/27 10:18:48;;;;;;;6.73;5.10;;;;;;;6.25;100.00;96457.94;7400911;19;20385;-90
2023/12/27 10:21:43;;;;;;;5.37;4.80;;;;;;;5.84;100.00;96371.31;7398960;19;20874;-90
2023/12/27 10:24:24;;;;;;;7.30;5.70;;;;;;;6.16;100.00;96394.38;7400166;19;20420;-90
2023/12/27 10:27:07;;;;;;;8.30;6.43;;;;;;;6.39;100.00;96436.50;7398569;19;20384;-91
2023/12/27 10:29:48;;;;;;;14.83;6.37;;;;;;;6.02;100.00;96384.78;7401694;19;20385;-90
2023/12/27 10:32:29;;;;;;;5.27;4.77;;;;;;;5.94;100.00;96367.88;7400528;19;20400;-90
2023/12/27 10:35:11;;;;;;;13.07;4.97;;;;;;;6.27;100.00;96380.25;7401405;19;20683;-90
2023/12/27 10:38:04;;;;;;;6.00;3.80;;;;;;;5.80;100.00;96286.94;7401299;19;20367;-91
2023/12/27 10:40:45;;;;;;;12.80;5.30;;;;;;;6.22;100.00;96340.41;7401692;19;20387;-90
2023/12/27 10:43:26;;;;;;;6.57;4.90;;;;;;;6.37;100.00;96329.09;7396149;19;20424;-90
2023/12/27 10:46:08;;;;;;;7.40;5.70;;;;;;;6.86;100.00;96391.63;7395685;19;20444;-91
2023/12/27 10:48:55;;;;;;;6.23;4.30;;;;;;;6.37;100.00;96316.88;7397154;19;20380;-90
2023/12/27 10:51:39;;;;;;;8.03;5.30;;;;;;;6.86;100.00;96375.97;7397125;19;20392;-91
2023/12/27 10:54:21;;;;;;;6.00;5.40;;;;;;;6.33;100.00;96307.25;7400801;19;20361;-90
2023/12/27 10:57:06;;;;;;;6.17;5.33;;;;;;;7.24;100.00;96410.16;7398396;19;20675;-90
2023/12/27 10:59:50;;;;;;;6.27;4.33;;;;;;;7.47;100.00;96410.22;7402425;19;20430;-90
2023/12/27 11:02:31;;;;;;;8.50;5.40;;;;;;;6.72;100.00;96294.19;7400437;19;20403;-90
2023/12/27 11:05:15;;;;;;;6.40;4.20;;;;;;;6.75;100.00;96289.19;7398634;19;20384;-90
2023/12/27 11:07:57;;;;;;;3.90;3.60;;;;;;;7.47;100.00;96397.16;7400800;19;20388;-91
2023/12/27 11:10:39;;;;;;;6.13;4.80;;;;;;;6.75;100.00;96283.97;7399114;19;20696;-91
2023/12/27 11:13:25;;;;;;;7.10;4.27;;;;;;;6.50;100.00;96277.16;7395793;19;20424;-89
2023/12/27 11:16:10;;;;;;;7.50;5.17;;;;;;;7.02;100.00;96314.78;7401850;19;20373;-90
2023/12/27 11:18:52;;;;;;;9.63;4.63;;;;;;;6.67;100.00;96261.13;7399666;19;20380;-90
2023/12/27 11:21:37;;;;;;;5.77;4.90;;;;;;;6.88;100.00;96285.97;7400561;19;20400;-90
2023/12/27 11:24:18;;;;;;;6.47;5.13;;;;;;;6.95;100.00;96301.31;7397660;19;20396;-90
2023/12/27 11:27:01;;;;;;;8.70;6.20;;;;;;;7.00;100.00;96275.16;7399924;19;20380;-91
2023/12/27 11:29:43;;;;;;;5.33;4.47;;;;;;;7.17;100.00;96319.09;7401279;19;20364;-90
2023/12/27 11:32:27;;;;;;;7.63;5.60;;;;;;;7.61;100.00;96346.88;7398524;19;20377;-90
2023/12/27 11:35:35;;;;;;;11.10;5.70;;;;;;;7.37;100.00;96278.97;7399227;19;20383;-91
2023/12/27 11:38:20;;;;;;;7.93;5.43;;;;;;;7.37;100.00;96271.13;7399270;19;20364;-90
2023/12/27 11:41:02;;;;;;;5.43;4.93;;;;;;;7.18;100.00;96221.50;7406636;19;20669;-90
2023/12/27 11:43:56;;;;;;;7.97;5.37;;;;;;;8.02;100.00;96327.06;7406738;19;20410;-91
2023/12/27 11:46:37;;;;;;;7.03;4.90;;;;;;;7.80;100.00;96285.00;7408765;19;20417;-90
2023/12/27 11:49:20;;;;;;;7.10;5.67;;;;;;;7.76;100.00;96250.81;7404617;19;20364;-91
2023/12/27 11:52:05;;;;;;;6.83;5.67;;;;;;;8.01;100.00;96268.00;7408274;19;20423;-91
2023/12/27 11:54:46;;;;;;;7.17;5.33;;;;;;;8.19;100.00;96269.06;7406859;19;20393;-91
2023/12/27 11:57:27;;;;;;;4.87;4.40;;;;;;;7.96;100.00;96247.16;7407435;19;20373;-91
2023/12/27 12:00:12;;;;;;;6.53;5.10;;;;;;;7.72;100.00;96218.50;7407072;19;20365;-91
2023/12/27 12:03:00;;;;;;;5.67;4.60;;;;;;;8.00;100.00;96252.63;7404930;19;20909;-91
2023/12/27 12:06:17;;;;;;;7.60;5.20;;;;;;;8.06;100.00;96247.03;7404592;19;20381;-91
2023/12/27 12:09:04;;;;;;;5.20;4.60;;;;;;;8.64;100.00;96301.63;7404230;19;20953;-90
2023/12/27 12:11:51;;;;;;;4.47;3.73;;;;;;;8.73;100.00;96240.78;7408117;19;20403;-90
2023/12/27 12:14:32;;;;;;;7.33;4.73;;;;;;;8.22;100.00;96137.78;7407941;19;20381;-92
2023/12/27 12:17:15;;;;;;;4.40;4.00;;;;;;;8.14;100.00;96130.59;7405523;19;20381;-91
2023/12/27 12:19:56;;;;;;;8.50;4.40;;;;;;;8.80;100.00;96217.66;7408842;19;20415;-90
2023/12/27 12:22:39;;;;;;;9.70;4.93;;;;;;;8.86;100.00;96208.63;7406401;19;20444;-90
2023/12/27 12:25:25;;;;;;;4.00;3.20;;;;;;;8.68;100.00;96191.94;7409932;19;20396;-91
2023/12/27 12:28:06;;;;;;;5.47;3.40;;;;;;;8.80;100.00;96221.06;7408414;19;20388;-91
2023/12/27 12:30:48;;;;;;;4.93;4.10;;;;;;;8.61;100.00;96178.44;7429706;19;20369;-90
2023/12/27 12:33:29;;;;;;;6.90;4.60;;;;;;;9.14;100.00;96246.09;7429188;19;20428;-90
2023/12/27 12:36:10;;;;;;;7.47;3.57;;;;;;;8.87;100.00;96203.13;7431627;19;20399;-90
2023/12/27 12:38:52;;;;;;;4.17;2.50;;;;;;;9.52;100.00;96284.16;7432273;19;20417;-90
2023/12/27 12:41:33;;;;;;;9.33;3.47;;;;;;;8.87;100.00;96197.09;7431639;19;20403;-91
2023/12/27 12:44:15;;;;;;;3.50;2.43;;;;;;;8.56;100.00;96158.41;7428131;19;20440;-90